Advance, North Carolina
Current Conditions -  °F | °C
As of 2:35 PM on Thursday 18 Dec 2014 (Local Time) from KEXX Reporting Station
Clear Clear  
Wind Chill: 50°   Ceiling: Unl
Heat Index: 50°   Visibility: 10mi
Dew Point: 20°   Wind: 0mph
Humidity: 30%   Direction: NA
Pressure: 30.08"   Gusts: NA
Location:  35.95°N, 80.41°W
Report Text: KEXX 181935Z AUTO 00000KT 10SM CLR 10/M07 A3008 RMK AO2 T01021067
Loading
Personal Weather Stations






























Interactive Weather Map New forecast layout! Learn more

10-Day Weather Forecast

Advertisements
Track Severe Weather on mobile